»·PEaware :: DCM1013 KGEG-KSEA

DCM1013 :: KGEG-KSEA

FLIGHT INFORMATION

Flight Status: Arrived
Operator: Unknown
More flights by this operator :: More flights under this callsign
Pilot: Joe C. (19058)
Aircraft: BOMBARDIER BD-100 CHALLENGER 300
(CL30)
More flights by this aircraft type
Origin: KGEG Spokane Intl
United States
Destination: KSEA Seattle-Tacoma Intl
United States
More flights between these airports :: More routes between these airports
Route: +GEG3 TEMPL GLASR1
File this flight plan on PilotEdge
Remarks:
Altitude:
(Current/Filed)
34,000ft
Speed:
(Current/Filed)
460kts
Departed: 25-Aug-18 08:48 PM
Arrived: 25-Aug-18 09:35 PM
Distance/Time
Traveled:
194nm/0:47
Distance/Time
To Go:
Arrived

Flight Plot

Page will automatically refresh every two minutes.

Flight plan parsing failed; only flown route is shown


Map Options




Map Legend


Flown Route
Filed Route
Departure Airport
Arrival Airport
Navaid (VOR, NDB)
Fix

Horizontal Profiles

Position Reports

Time Latitude Longitude Heading Altitude Ground
Speed
25-Aug-18 20:40 47.621784 -117.524086 269 2359ft 0kts
25-Aug-18 20:41 47.621784 -117.524086 269 2359ft 0kts
25-Aug-18 20:42 47.621784 -117.524086 269 2359ft 0kts
25-Aug-18 20:43 47.621784 -117.524086 269 2359ft 0kts
25-Aug-18 20:44 47.621784 -117.524086 269 2359ft 0kts
25-Aug-18 20:45 47.621784 -117.524093 269 2359ft 1kts
25-Aug-18 20:46 47.623544 -117.525293 3 2355ft 5kts
25-Aug-18 20:47 47.627943 -117.519725 45 2340ft 30kts
25-Aug-18 20:48 47.630394 -117.517299 315 2326ft 0kts
25-Aug-18 20:49 47.630124 -117.519962 227 2332ft 45kts
25-Aug-18 20:50 47.594894 -117.567640 214 3910ft 263kts
25-Aug-18 20:51 47.534455 -117.627272 218 9302ft 280kts
25-Aug-18 20:52 47.471560 -117.702490 218 12074ft 310kts
25-Aug-18 20:53 47.448178 -117.810912 296 12115ft 326kts
25-Aug-18 20:54 47.482313 -117.934398 286 16716ft 319kts
25-Aug-18 20:55 47.507257 -118.060414 283 20275ft 329kts
25-Aug-18 20:56 47.530173 -118.193456 282 23151ft 340kts
25-Aug-18 20:57 47.552756 -118.331946 281 25709ft 353kts
25-Aug-18 20:58 47.575606 -118.475371 282 28097ft 364kts
25-Aug-18 20:59 47.598888 -118.623447 282 30192ft 375kts
25-Aug-18 21:00 47.622261 -118.773650 281 32020ft 384kts
25-Aug-18 21:01 47.646000 -118.928331 284 33889ft 387kts
25-Aug-18 21:02 47.670845 -119.091268 286 33993ft 422kts
25-Aug-18 21:03 47.697409 -119.266821 286 33991ft 444kts
25-Aug-18 21:04 47.724073 -119.445429 286 33986ft 443kts
25-Aug-18 21:05 47.740922 -119.626360 281 33987ft 440kts
25-Aug-18 21:06 47.755013 -119.803261 280 33373ft 427kts
25-Aug-18 21:07 47.768546 -119.978569 280 31685ft 428kts
25-Aug-18 21:08 47.781800 -120.154555 280 29876ft 428kts
25-Aug-18 21:09 47.794697 -120.329670 279 28064ft 428kts
25-Aug-18 21:10 47.807413 -120.506043 279 26248ft 431kts
25-Aug-18 21:11 47.819844 -120.682647 278 24433ft 430kts
25-Aug-18 21:12 47.831401 -120.850986 278 23041ft 388kts
25-Aug-18 21:13 47.841730 -121.004383 279 21206ft 357kts
25-Aug-18 21:14 47.851002 -121.145086 281 19377ft 330kts
25-Aug-18 21:15 47.859647 -121.277119 281 17539ft 312kts
25-Aug-18 21:16 47.867709 -121.402566 280 15707ft 298kts
25-Aug-18 21:17 47.875369 -121.524079 279 13898ft 295kts
25-Aug-18 21:18 47.882809 -121.644449 277 12101ft 288kts
25-Aug-18 21:19 47.848789 -121.744285 227 12008ft 286kts
25-Aug-18 21:20 47.790636 -121.829946 225 10593ft 298kts
25-Aug-18 21:21 47.730953 -121.913013 224 8793ft 291kts
25-Aug-18 21:22 47.672892 -121.992250 223 6984ft 277kts
25-Aug-18 21:23 47.616658 -122.068115 223 5180ft 276kts
25-Aug-18 21:24 47.556836 -122.135436 186 4982ft 276kts
25-Aug-18 21:25 47.481665 -122.133212 178 4777ft 281kts
25-Aug-18 21:26 47.408798 -122.130099 178 3219ft 248kts
25-Aug-18 21:27 47.342323 -122.127158 178 1995ft 237kts
25-Aug-18 21:28 47.275784 -122.124181 178 1996ft 232kts
25-Aug-18 21:29 47.254123 -122.190265 275 1999ft 192kts
25-Aug-18 21:30 47.259088 -122.267853 276 2008ft 193kts
25-Aug-18 21:31 47.285520 -122.312230 359 1983ft 179kts
25-Aug-18 21:32 47.329053 -122.311957 359 2017ft 139kts
25-Aug-18 21:33 47.358257 -122.311848 0 1924ft 122kts
25-Aug-18 21:34 47.400888 -122.311474 0 1110ft 128kts
25-Aug-18 21:35 47.429421 -122.311340 0 622ft 124kts
25-Aug-18 21:36 47.451194 -122.309671 30 412ft 0kts
25-Aug-18 21:37 47.451518 -122.309392 30 413ft 10kts

Navigation Log

Ident Type
Flight plan parsing failed, navigation log unavailable